sensor_id;sensor_type;location;lat;lon;timestamp;temperature;humidity
16974;DHT22;8603;46.944;7.412;2023-03-30T00:00:04;11.40;99.90
16974;DHT22;8603;46.944;7.412;2023-03-30T00:02:48;11.50;99.90
16974;DHT22;8603;46.944;7.412;2023-03-30T00:05:16;11.40;99.90
16974;DHT22;8603;46.944;7.412;2023-03-30T00:07:42;11.40;99.90
16974;DHT22;8603;46.944;7.412;2023-03-30T00:10:14;11.40;99.90
16974;DHT22;8603;46.944;7.412;2023-03-30T00:12:42;11.40;99.90
16974;DHT22;8603;46.944;7.412;2023-03-30T00:15:08;11.30;99.90
16974;DHT22;8603;46.944;7.412;2023-03-30T00:17:36;11.30;99.90
16974;DHT22;8603;46.944;7.412;2023-03-30T00:20:02;11.20;99.90
16974;DHT22;8603;46.944;7.412;2023-03-30T00:22:34;11.20;99.90
16974;DHT22;8603;46.944;7.412;2023-03-30T00:24:59;11.20;99.90
16974;DHT22;8603;46.944;7.412;2023-03-30T00:27:25;11.30;99.90
16974;DHT22;8603;46.944;7.412;2023-03-30T00:29:52;11.40;99.90
16974;DHT22;8603;46.944;7.412;2023-03-30T00:32:17;11.20;99.90
16974;DHT22;8603;46.944;7.412;2023-03-30T00:34:43;11.30;99.90
16974;DHT22;8603;46.944;7.412;2023-03-30T00:37:08;11.20;99.90
16974;DHT22;8603;46.944;7.412;2023-03-30T00:39:34;11.10;99.90
16974;DHT22;8603;46.944;7.412;2023-03-30T00:41:59;11.20;99.90
16974;DHT22;8603;46.944;7.412;2023-03-30T00:47:25;11.10;99.90
16974;DHT22;8603;46.944;7.412;2023-03-30T00:49:52;11.20;99.90
16974;DHT22;8603;46.944;7.412;2023-03-30T00:52:18;11.20;99.90
16974;DHT22;8603;46.944;7.412;2023-03-30T00:54:50;11.20;99.90
16974;DHT22;8603;46.944;7.412;2023-03-30T00:57:19;11.30;99.90
16974;DHT22;8603;46.944;7.412;2023-03-30T00:59:46;11.40;99.90
16974;DHT22;8603;46.944;7.412;2023-03-30T01:02:12;11.50;99.90
16974;DHT22;8603;46.944;7.412;2023-03-30T01:04:38;11.60;99.90
16974;DHT22;8603;46.944;7.412;2023-03-30T01:07:04;11.70;99.90
16974;DHT22;8603;46.944;7.412;2023-03-30T01:09:31;11.80;99.90
16974;DHT22;8603;46.944;7.412;2023-03-30T01:11:57;11.80;99.90
16974;DHT22;8603;46.944;7.412;2023-03-30T01:14:23;11.80;99.90
16974;DHT22;8603;46.944;7.412;2023-03-30T01:28:38;11.90;99.90
16974;DHT22;8603;46.944;7.412;2023-03-30T01:40:11;12.10;99.90
16974;DHT22;8603;46.944;7.412;2023-03-30T01:43:16;12.00;99.90
16974;DHT22;8603;46.944;7.412;2023-03-30T01:45:58;12.00;99.90
16974;DHT22;8603;46.944;7.412;2023-03-30T01:48:33;11.90;99.90
16974;DHT22;8603;46.944;7.412;2023-03-30T01:51:11;11.90;99.90
16974;DHT22;8603;46.944;7.412;2023-03-30T01:56:35;11.90;99.90
16974;DHT22;8603;46.944;7.412;2023-03-30T01:59:20;11.80;99.90
16974;DHT22;8603;46.944;7.412;2023-03-30T02:01:51;11.80;99.90
16974;DHT22;8603;46.944;7.412;2023-03-30T02:04:20;11.70;99.90
16974;DHT22;8603;46.944;7.412;2023-03-30T02:06:52;11.70;99.90
16974;DHT22;8603;46.944;7.412;2023-03-30T02:11:52;11.40;99.90
16974;DHT22;8603;46.944;7.412;2023-03-30T02:24:49;11.30;99.90
16974;DHT22;8603;46.944;7.412;2023-03-30T02:28:00;11.30;99.90
16974;DHT22;8603;46.944;7.412;2023-03-30T02:30:54;11.40;99.90
16974;DHT22;8603;46.944;7.412;2023-03-30T02:33:37;11.30;99.90
16974;DHT22;8603;46.944;7.412;2023-03-30T02:36:31;11.20;99.90
16974;DHT22;8603;46.944;7.412;2023-03-30T02:51:50;10.80;99.90
16974;DHT22;8603;46.944;7.412;2023-03-30T03:01:16;10.70;99.90
16974;DHT22;8603;46.944;7.412;2023-03-30T03:03:48;10.80;99.90
16974;DHT22;8603;46.944;7.412;2023-03-30T03:06:21;10.80;99.90
16974;DHT22;8603;46.944;7.412;2023-03-30T03:08:48;10.90;99.90
16974;DHT22;8603;46.944;7.412;2023-03-30T03:11:14;10.90;99.90
16974;DHT22;8603;46.944;7.412;2023-03-30T03:13:41;10.90;99.90
16974;DHT22;8603;46.944;7.412;2023-03-30T03:16:08;11.00;99.90
16974;DHT22;8603;46.944;7.412;2023-03-30T03:18:40;11.00;99.90
16974;DHT22;8603;46.944;7.412;2023-03-30T03:21:27;11.00;99.90
16974;DHT22;8603;46.944;7.412;2023-03-30T03:23:53;11.00;99.90
16974;DHT22;8603;46.944;7.412;2023-03-30T03:26:39;11.00;99.90
16974;DHT22;8603;46.944;7.412;2023-03-30T03:29:08;10.90;99.90
16974;DHT22;8603;46.944;7.412;2023-03-30T03:31:52;11.00;99.90
16974;DHT22;8603;46.944;7.412;2023-03-30T03:34:18;10.90;99.90
16974;DHT22;8603;46.944;7.412;2023-03-30T03:36:44;11.00;99.90
16974;DHT22;8603;46.944;7.412;2023-03-30T03:39:10;10.90;99.90
16974;DHT22;8603;46.944;7.412;2023-03-30T03:41:45;11.00;99.90
16974;DHT22;8603;46.944;7.412;2023-03-30T03:44:10;11.00;99.90
16974;DHT22;8603;46.944;7.412;2023-03-30T03:46:36;10.90;99.90
16974;DHT22;8603;46.944;7.412;2023-03-30T03:49:02;10.90;99.90
16974;DHT22;8603;46.944;7.412;2023-03-30T03:51:27;10.80;99.90
16974;DHT22;8603;46.944;7.412;2023-03-30T03:53:58;10.70;99.90
16974;DHT22;8603;46.944;7.412;2023-03-30T03:56:52;10.60;99.90
16974;DHT22;8603;46.944;7.412;2023-03-30T03:59:42;10.60;99.90
16974;DHT22;8603;46.944;7.412;2023-03-30T04:02:07;10.50;99.90
16974;DHT22;8603;46.944;7.412;2023-03-30T04:04:33;10.60;99.90
16974;DHT22;8603;46.944;7.412;2023-03-30T04:06:59;10.40;99.90
16974;DHT22;8603;46.944;7.412;2023-03-30T04:09:51;10.40;99.90
16974;DHT22;8603;46.944;7.412;2023-03-30T04:12:20;10.30;99.90
16974;DHT22;8603;46.944;7.412;2023-03-30T04:14:48;10.40;99.90
16974;DHT22;8603;46.944;7.412;2023-03-30T04:17:24;10.20;99.90
16974;DHT22;8603;46.944;7.412;2023-03-30T04:27:32;10.00;99.90
16974;DHT22;8603;46.944;7.412;2023-03-30T04:30:14;10.00;99.90
16974;DHT22;8603;46.944;7.412;2023-03-30T04:32:52;9.90;99.90
16974;DHT22;8603;46.944;7.412;2023-03-30T04:41:50;9.70;99.90
16974;DHT22;8603;46.944;7.412;2023-03-30T04:44:26;9.70;99.90
16974;DHT22;8603;46.944;7.412;2023-03-30T04:46:54;9.80;99.90
16974;DHT22;8603;46.944;7.412;2023-03-30T04:49:26;9.90;99.90
16974;DHT22;8603;46.944;7.412;2023-03-30T04:51:52;9.90;99.90
16974;DHT22;8603;46.944;7.412;2023-03-30T04:54:19;9.90;99.90
16974;DHT22;8603;46.944;7.412;2023-03-30T04:56:45;9.90;99.90
16974;DHT22;8603;46.944;7.412;2023-03-30T04:59:16;9.90;99.90
16974;DHT22;8603;46.944;7.412;2023-03-30T05:01:42;10.00;99.90
16974;DHT22;8603;46.944;7.412;2023-03-30T05:04:10;10.00;99.90
16974;DHT22;8603;46.944;7.412;2023-03-30T05:06:35;10.00;99.90
16974;DHT22;8603;46.944;7.412;2023-03-30T05:09:01;10.00;99.90
16974;DHT22;8603;46.944;7.412;2023-03-30T05:11:27;10.00;99.90
16974;DHT22;8603;46.944;7.412;2023-03-30T05:13:52;10.00;99.90
16974;DHT22;8603;46.944;7.412;2023-03-30T05:16:19;10.10;99.90
16974;DHT22;8603;46.944;7.412;2023-03-30T05:18:46;10.00;99.90
16974;DHT22;8603;46.944;7.412;2023-03-30T05:21:12;10.00;99.90
16974;DHT22;8603;46.944;7.412;2023-03-30T05:23:37;9.90;99.90
16974;DHT22;8603;46.944;7.412;2023-03-30T05:26:04;9.90;99.90
16974;DHT22;8603;46.944;7.412;2023-03-30T05:28:31;9.80;99.90
16974;DHT22;8603;46.944;7.412;2023-03-30T05:30:57;9.70;99.90
16974;DHT22;8603;46.944;7.412;2023-03-30T05:33:23;9.70;99.90
16974;DHT22;8603;46.944;7.412;2023-03-30T05:35:50;9.90;99.90
16974;DHT22;8603;46.944;7.412;2023-03-30T05:38:16;9.80;99.90
16974;DHT22;8603;46.944;7.412;2023-03-30T05:40:42;9.90;99.90
16974;DHT22;8603;46.944;7.412;2023-03-30T05:43:09;9.90;99.90
16974;DHT22;8603;46.944;7.412;2023-03-30T05:45:34;10.00;99.90
16974;DHT22;8603;46.944;7.412;2023-03-30T05:48:00;10.00;99.90
16974;DHT22;8603;46.944;7.412;2023-03-30T05:50:26;10.10;99.90
16974;DHT22;8603;46.944;7.412;2023-03-30T05:52:51;10.20;99.90
16974;DHT22;8603;46.944;7.412;2023-03-30T05:55:17;10.30;99.90
16974;DHT22;8603;46.944;7.412;2023-03-30T05:57:43;10.40;99.90
16974;DHT22;8603;46.944;7.412;2023-03-30T06:00:10;10.40;99.90
16974;DHT22;8603;46.944;7.412;2023-03-30T06:02:38;10.50;99.90
16974;DHT22;8603;46.944;7.412;2023-03-30T06:05:04;10.60;99.90
16974;DHT22;8603;46.944;7.412;2023-03-30T06:07:30;10.70;99.90
16974;DHT22;8603;46.944;7.412;2023-03-30T06:09:56;10.80;99.90
16974;DHT22;8603;46.944;7.412;2023-03-30T06:12:35;10.90;99.90
16974;DHT22;8603;46.944;7.412;2023-03-30T06:15:36;11.00;99.90
16974;DHT22;8603;46.944;7.412;2023-03-30T06:18:07;11.10;99.90
16974;DHT22;8603;46.944;7.412;2023-03-30T06:21:17;11.20;99.90
16974;DHT22;8603;46.944;7.412;2023-03-30T06:23:54;11.20;99.90
16974;DHT22;8603;46.944;7.412;2023-03-30T06:26:38;11.20;99.90
16974;DHT22;8603;46.944;7.412;2023-03-30T06:29:05;11.20;99.90
16974;DHT22;8603;46.944;7.412;2023-03-30T06:31:34;11.20;99.90
16974;DHT22;8603;46.944;7.412;2023-03-30T06:33:59;11.20;99.90
16974;DHT22;8603;46.944;7.412;2023-03-30T06:36:26;11.20;99.90
16974;DHT22;8603;46.944;7.412;2023-03-30T06:38:52;11.20;99.90
16974;DHT22;8603;46.944;7.412;2023-03-30T06:41:17;11.20;99.90
16974;DHT22;8603;46.944;7.412;2023-03-30T06:46:57;11.30;99.90
16974;DHT22;8603;46.944;7.412;2023-03-30T06:49:25;11.60;99.90
16974;DHT22;8603;46.944;7.412;2023-03-30T06:51:51;11.80;99.90
16974;DHT22;8603;46.944;7.412;2023-03-30T06:54:17;12.00;99.90
16974;DHT22;8603;46.944;7.412;2023-03-30T06:56:46;12.20;99.90
16974;DHT22;8603;46.944;7.412;2023-03-30T06:59:12;12.40;99.90
16974;DHT22;8603;46.944;7.412;2023-03-30T07:01:38;12.30;99.90
16974;DHT22;8603;46.944;7.412;2023-03-30T07:04:13;12.50;99.90
16974;DHT22;8603;46.944;7.412;2023-03-30T07:06:42;12.50;99.90
16974;DHT22;8603;46.944;7.412;2023-03-30T07:09:08;12.50;99.90
16974;DHT22;8603;46.944;7.412;2023-03-30T07:11:34;12.40;99.90
16974;DHT22;8603;46.944;7.412;2023-03-30T07:13:59;12.50;99.90
16974;DHT22;8603;46.944;7.412;2023-03-30T07:16:26;12.50;99.90
16974;DHT22;8603;46.944;7.412;2023-03-30T07:18:54;12.70;99.90
16974;DHT22;8603;46.944;7.412;2023-03-30T07:21:20;12.90;99.90
16974;DHT22;8603;46.944;7.412;2023-03-30T07:23:49;13.20;99.90
16974;DHT22;8603;46.944;7.412;2023-03-30T07:26:15;13.40;99.90
16974;DHT22;8603;46.944;7.412;2023-03-30T07:28:41;13.70;99.90
16974;DHT22;8603;46.944;7.412;2023-03-30T07:31:09;14.10;99.90
16974;DHT22;8603;46.944;7.412;2023-03-30T07:33:37;14.30;99.90
16974;DHT22;8603;46.944;7.412;2023-03-30T07:36:03;14.60;99.90
16974;DHT22;8603;46.944;7.412;2023-03-30T07:38:29;14.70;99.90
16974;DHT22;8603;46.944;7.412;2023-03-30T07:40:55;14.80;99.90
16974;DHT22;8603;46.944;7.412;2023-03-30T07:43:21;14.90;99.90
16974;DHT22;8603;46.944;7.412;2023-03-30T07:45:47;15.00;99.90
16974;DHT22;8603;46.944;7.412;2023-03-30T07:48:12;15.40;99.90
16974;DHT22;8603;46.944;7.412;2023-03-30T07:50:38;15.70;99.90
16974;DHT22;8603;46.944;7.412;2023-03-30T07:53:04;16.00;99.90
16974;DHT22;8603;46.944;7.412;2023-03-30T07:55:29;16.20;99.90
16974;DHT22;8603;46.944;7.412;2023-03-30T07:57:56;16.30;99.90
16974;DHT22;8603;46.944;7.412;2023-03-30T08:00:22;16.50;99.90
16974;DHT22;8603;46.944;7.412;2023-03-30T08:02:48;16.60;99.90
16974;DHT22;8603;46.944;7.412;2023-03-30T08:05:15;16.90;99.90
16974;DHT22;8603;46.944;7.412;2023-03-30T08:07:42;17.20;99.90
16974;DHT22;8603;46.944;7.412;2023-03-30T08:10:09;17.60;99.90
16974;DHT22;8603;46.944;7.412;2023-03-30T08:12:36;18.30;99.90
16974;DHT22;8603;46.944;7.412;2023-03-30T08:15:04;19.40;99.90
16974;DHT22;8603;46.944;7.412;2023-03-30T08:17:30;20.70;99.90
16974;DHT22;8603;46.944;7.412;2023-03-30T08:20:02;22.10;99.90
16974;DHT22;8603;46.944;7.412;2023-03-30T08:22:32;23.40;99.90
16974;DHT22;8603;46.944;7.412;2023-03-30T08:24:58;24.70;99.00
16974;DHT22;8603;46.944;7.412;2023-03-30T08:27:26;25.30;95.90
16974;DHT22;8603;46.944;7.412;2023-03-30T08:29:51;24.90;94.30
16974;DHT22;8603;46.944;7.412;2023-03-30T08:32:21;25.70;93.30
16974;DHT22;8603;46.944;7.412;2023-03-30T08:34:50;26.70;92.20
16974;DHT22;8603;46.944;7.412;2023-03-30T08:37:19;27.00;91.60
16974;DHT22;8603;46.944;7.412;2023-03-30T08:39:44;27.90;90.70
16974;DHT22;8603;46.944;7.412;2023-03-30T08:42:58;28.10;86.80
16974;DHT22;8603;46.944;7.412;2023-03-30T08:45:39;26.50;88.40
16974;DHT22;8603;46.944;7.412;2023-03-30T08:48:23;25.00;89.00
16974;DHT22;8603;46.944;7.412;2023-03-30T08:50:58;22.90;91.60
16974;DHT22;8603;46.944;7.412;2023-03-30T08:53:27;21.20;93.90
16974;DHT22;8603;46.944;7.412;2023-03-30T08:56:16;20.00;97.70
16974;DHT22;8603;46.944;7.412;2023-03-30T09:07:20;16.60;99.90
16974;DHT22;8603;46.944;7.412;2023-03-30T09:09:47;16.10;99.90
16974;DHT22;8603;46.944;7.412;2023-03-30T09:18:05;14.90;99.90
16974;DHT22;8603;46.944;7.412;2023-03-30T09:23:37;13.90;99.90
16974;DHT22;8603;46.944;7.412;2023-03-30T09:26:17;13.60;99.90
16974;DHT22;8603;46.944;7.412;2023-03-30T09:32:16;13.00;99.90
16974;DHT22;8603;46.944;7.412;2023-03-30T09:37:38;12.60;99.90
16974;DHT22;8603;46.944;7.412;2023-03-30T09:45:47;12.80;99.90
16974;DHT22;8603;46.944;7.412;2023-03-30T09:48:14;13.00;99.90
16974;DHT22;8603;46.944;7.412;2023-03-30T09:50:42;13.30;99.90
16974;DHT22;8603;46.944;7.412;2023-03-30T09:53:27;13.60;99.90
16974;DHT22;8603;46.944;7.412;2023-03-30T09:56:02;13.80;99.90
16974;DHT22;8603;46.944;7.412;2023-03-30T09:58:37;14.10;99.90
16974;DHT22;8603;46.944;7.412;2023-03-30T10:01:08;14.40;99.90
16974;DHT22;8603;46.944;7.412;2023-03-30T10:03:40;14.70;99.90
16974;DHT22;8603;46.944;7.412;2023-03-30T10:06:36;15.10;99.90
16974;DHT22;8603;46.944;7.412;2023-03-30T10:09:27;15.60;99.90
16974;DHT22;8603;46.944;7.412;2023-03-30T10:11:58;16.10;99.90
16974;DHT22;8603;46.944;7.412;2023-03-30T10:14:32;16.60;99.90
16974;DHT22;8603;46.944;7.412;2023-03-30T10:17:01;17.00;99.90
16974;DHT22;8603;46.944;7.412;2023-03-30T10:19:28;17.50;99.90
16974;DHT22;8603;46.944;7.412;2023-03-30T10:21:56;18.10;99.90
16974;DHT22;8603;46.944;7.412;2023-03-30T10:24:27;18.30;99.90
16974;DHT22;8603;46.944;7.412;2023-03-30T10:27:01;18.50;99.90
16974;DHT22;8603;46.944;7.412;2023-03-30T10:29:30;18.60;99.90
16974;DHT22;8603;46.944;7.412;2023-03-30T10:32:02;18.70;99.90
16974;DHT22;8603;46.944;7.412;2023-03-30T10:34:41;18.70;99.90
16974;DHT22;8603;46.944;7.412;2023-03-30T10:37:32;18.70;99.90
16974;DHT22;8603;46.944;7.412;2023-03-30T10:40:02;18.70;99.90
16974;DHT22;8603;46.944;7.412;2023-03-30T10:42:38;18.80;99.90
16974;DHT22;8603;46.944;7.412;2023-03-30T10:45:19;18.80;99.90
16974;DHT22;8603;46.944;7.412;2023-03-30T10:55:56;18.30;99.90
16974;DHT22;8603;46.944;7.412;2023-03-30T11:04:26;18.00;99.90
16974;DHT22;8603;46.944;7.412;2023-03-30T11:06:55;18.00;99.90
16974;DHT22;8603;46.944;7.412;2023-03-30T11:09:25;17.80;99.90
16974;DHT22;8603;46.944;7.412;2023-03-30T11:12:14;17.80;99.90
16974;DHT22;8603;46.944;7.412;2023-03-30T11:15:03;17.90;99.90
16974;DHT22;8603;46.944;7.412;2023-03-30T11:17:38;18.00;99.90
16974;DHT22;8603;46.944;7.412;2023-03-30T11:20:25;18.10;99.90
16974;DHT22;8603;46.944;7.412;2023-03-30T11:34:25;16.80;99.90
16974;DHT22;8603;46.944;7.412;2023-03-30T11:40:01;16.70;99.90
16974;DHT22;8603;46.944;7.412;2023-03-30T11:42:37;16.60;99.90
16974;DHT22;8603;46.944;7.412;2023-03-30T11:45:25;16.60;99.90
16974;DHT22;8603;46.944;7.412;2023-03-30T11:53:57;15.90;99.90
16974;DHT22;8603;46.944;7.412;2023-03-30T12:05:58;14.90;99.90
16974;DHT22;8603;46.944;7.412;2023-03-30T12:18:14;14.10;99.90
16974;DHT22;8603;46.944;7.412;2023-03-30T12:23:59;13.60;99.90
16974;DHT22;8603;46.944;7.412;2023-03-30T12:26:29;13.50;99.90
16974;DHT22;8603;46.944;7.412;2023-03-30T12:29:18;13.50;99.90
16974;DHT22;8603;46.944;7.412;2023-03-30T12:37:59;14.10;99.90
16974;DHT22;8603;46.944;7.412;2023-03-30T12:56:37;13.60;99.90
16974;DHT22;8603;46.944;7.412;2023-03-30T13:04:43;13.60;99.90
16974;DHT22;8603;46.944;7.412;2023-03-30T13:07:26;13.60;99.90
16974;DHT22;8603;46.944;7.412;2023-03-30T13:15:19;13.90;99.90
16974;DHT22;8603;46.944;7.412;2023-03-30T13:20:33;13.70;99.90
16974;DHT22;8603;46.944;7.412;2023-03-30T13:23:25;13.70;99.90
16974;DHT22;8603;46.944;7.412;2023-03-30T13:26:05;13.50;99.90
16974;DHT22;8603;46.944;7.412;2023-03-30T13:28:54;13.40;99.90
16974;DHT22;8603;46.944;7.412;2023-03-30T13:31:24;13.40;99.90
16974;DHT22;8603;46.944;7.412;2023-03-30T13:34:11;13.20;99.90
16974;DHT22;8603;46.944;7.412;2023-03-30T13:36:51;13.20;99.90
16974;DHT22;8603;46.944;7.412;2023-03-30T13:39:27;13.20;99.90
16974;DHT22;8603;46.944;7.412;2023-03-30T13:42:19;13.30;99.90
16974;DHT22;8603;46.944;7.412;2023-03-30T13:44:51;13.50;99.90
16974;DHT22;8603;46.944;7.412;2023-03-30T13:47:36;13.90;99.90
16974;DHT22;8603;46.944;7.412;2023-03-30T13:50:23;14.30;99.90
16974;DHT22;8603;46.944;7.412;2023-03-30T13:53:08;14.60;99.90
16974;DHT22;8603;46.944;7.412;2023-03-30T13:55:38;14.90;99.90
16974;DHT22;8603;46.944;7.412;2023-03-30T13:58:11;15.00;99.90
16974;DHT22;8603;46.944;7.412;2023-03-30T14:00:51;15.10;99.90
16974;DHT22;8603;46.944;7.412;2023-03-30T14:08:40;14.90;99.90
16974;DHT22;8603;46.944;7.412;2023-03-30T14:11:19;14.80;99.90
16974;DHT22;8603;46.944;7.412;2023-03-30T14:13:51;14.70;99.90
16974;DHT22;8603;46.944;7.412;2023-03-30T14:16:22;14.60;99.90
16974;DHT22;8603;46.944;7.412;2023-03-30T14:18:49;14.60;99.90
16974;DHT22;8603;46.944;7.412;2023-03-30T14:21:18;14.70;99.90
16974;DHT22;8603;46.944;7.412;2023-03-30T14:23:48;14.70;99.90
16974;DHT22;8603;46.944;7.412;2023-03-30T14:26:21;14.80;99.90
16974;DHT22;8603;46.944;7.412;2023-03-30T14:28:51;14.80;99.90
16974;DHT22;8603;46.944;7.412;2023-03-30T14:31:19;14.70;99.90
16974;DHT22;8603;46.944;7.412;2023-03-30T14:33:46;14.70;99.90
16974;DHT22;8603;46.944;7.412;2023-03-30T14:36:17;14.80;99.90
16974;DHT22;8603;46.944;7.412;2023-03-30T14:38:49;14.90;99.90
16974;DHT22;8603;46.944;7.412;2023-03-30T14:41:22;15.00;99.90
16974;DHT22;8603;46.944;7.412;2023-03-30T14:43:55;15.10;99.90
16974;DHT22;8603;46.944;7.412;2023-03-30T14:46:23;15.30;99.90
16974;DHT22;8603;46.944;7.412;2023-03-30T14:48:49;15.30;99.90
16974;DHT22;8603;46.944;7.412;2023-03-30T14:51:25;15.40;99.90
16974;DHT22;8603;46.944;7.412;2023-03-30T14:53:52;15.40;99.90
16974;DHT22;8603;46.944;7.412;2023-03-30T14:56:28;15.40;99.90
16974;DHT22;8603;46.944;7.412;2023-03-30T14:58:58;15.40;99.90
16974;DHT22;8603;46.944;7.412;2023-03-30T15:01:30;15.60;99.90
16974;DHT22;8603;46.944;7.412;2023-03-30T15:04:11;15.60;99.90
16974;DHT22;8603;46.944;7.412;2023-03-30T15:06:38;15.60;99.90
16974;DHT22;8603;46.944;7.412;2023-03-30T15:09:12;15.70;99.90
16974;DHT22;8603;46.944;7.412;2023-03-30T15:11:39;15.60;99.90
16974;DHT22;8603;46.944;7.412;2023-03-30T15:14:16;15.60;99.90
16974;DHT22;8603;46.944;7.412;2023-03-30T15:16:44;15.60;99.90
16974;DHT22;8603;46.944;7.412;2023-03-30T15:21:56;15.60;99.90
16974;DHT22;8603;46.944;7.412;2023-03-30T15:24:25;15.80;99.90
16974;DHT22;8603;46.944;7.412;2023-03-30T15:26:54;15.80;99.90
16974;DHT22;8603;46.944;7.412;2023-03-30T15:29:22;15.70;99.90
16974;DHT22;8603;46.944;7.412;2023-03-30T15:32:04;15.80;99.90
16974;DHT22;8603;46.944;7.412;2023-03-30T15:34:30;15.70;99.90
16974;DHT22;8603;46.944;7.412;2023-03-30T15:37:01;15.70;99.90
16974;DHT22;8603;46.944;7.412;2023-03-30T15:39:32;15.70;99.90
16974;DHT22;8603;46.944;7.412;2023-03-30T15:42:30;15.70;99.90
16974;DHT22;8603;46.944;7.412;2023-03-30T15:45:12;15.70;99.90
16974;DHT22;8603;46.944;7.412;2023-03-30T15:47:38;15.70;99.90
16974;DHT22;8603;46.944;7.412;2023-03-30T15:50:10;15.60;99.90
16974;DHT22;8603;46.944;7.412;2023-03-30T15:52:43;15.60;99.90
16974;DHT22;8603;46.944;7.412;2023-03-30T15:55:24;15.60;99.90
16974;DHT22;8603;46.944;7.412;2023-03-30T15:57:56;15.50;99.90
16974;DHT22;8603;46.944;7.412;2023-03-30T16:00:27;15.40;99.90
16974;DHT22;8603;46.944;7.412;2023-03-30T16:02:59;15.40;99.90
16974;DHT22;8603;46.944;7.412;2023-03-30T16:05:30;15.40;99.90
16974;DHT22;8603;46.944;7.412;2023-03-30T16:11:45;15.50;99.90
16974;DHT22;8603;46.944;7.412;2023-03-30T16:14:20;15.50;99.90
16974;DHT22;8603;46.944;7.412;2023-03-30T16:16:46;15.50;99.90
16974;DHT22;8603;46.944;7.412;2023-03-30T16:19:14;15.50;99.90
16974;DHT22;8603;46.944;7.412;2023-03-30T16:21:41;15.50;99.90
16974;DHT22;8603;46.944;7.412;2023-03-30T16:24:07;15.40;99.90
16974;DHT22;8603;46.944;7.412;2023-03-30T16:26:33;15.30;99.90
16974;DHT22;8603;46.944;7.412;2023-03-30T16:29:15;15.20;99.90
16974;DHT22;8603;46.944;7.412;2023-03-30T16:31:42;15.10;99.90
16974;DHT22;8603;46.944;7.412;2023-03-30T16:34:14;15.10;99.90
16974;DHT22;8603;46.944;7.412;2023-03-30T16:36:48;15.00;99.90
16974;DHT22;8603;46.944;7.412;2023-03-30T16:39:24;14.90;99.90
16974;DHT22;8603;46.944;7.412;2023-03-30T16:41:52;14.90;99.90
16974;DHT22;8603;46.944;7.412;2023-03-30T16:44:23;14.70;99.90
16974;DHT22;8603;46.944;7.412;2023-03-30T16:46:49;14.70;99.90
16974;DHT22;8603;46.944;7.412;2023-03-30T16:49:45;14.60;99.90
16974;DHT22;8603;46.944;7.412;2023-03-30T16:52:11;14.60;99.90
16974;DHT22;8603;46.944;7.412;2023-03-30T16:54:39;14.60;99.90
16974;DHT22;8603;46.944;7.412;2023-03-30T16:57:04;14.60;99.90
16974;DHT22;8603;46.944;7.412;2023-03-30T16:59:31;14.60;99.90
16974;DHT22;8603;46.944;7.412;2023-03-30T17:01:57;14.50;99.90
16974;DHT22;8603;46.944;7.412;2023-03-30T17:04:30;14.50;99.90
16974;DHT22;8603;46.944;7.412;2023-03-30T17:07:20;14.30;99.90
16974;DHT22;8603;46.944;7.412;2023-03-30T17:09:46;14.20;99.90
16974;DHT22;8603;46.944;7.412;2023-03-30T17:12:15;14.00;99.90
16974;DHT22;8603;46.944;7.412;2023-03-30T17:15:05;13.90;99.90
16974;DHT22;8603;46.944;7.412;2023-03-30T17:17:30;13.80;99.90
16974;DHT22;8603;46.944;7.412;2023-03-30T17:20:28;13.70;99.90
16974;DHT22;8603;46.944;7.412;2023-03-30T17:23:09;13.60;99.90
16974;DHT22;8603;46.944;7.412;2023-03-30T17:28:58;13.50;99.90
16974;DHT22;8603;46.944;7.412;2023-03-30T17:31:26;13.50;99.90
16974;DHT22;8603;46.944;7.412;2023-03-30T17:33:52;13.30;99.90
16974;DHT22;8603;46.944;7.412;2023-03-30T17:36:23;13.20;99.90
16974;DHT22;8603;46.944;7.412;2023-03-30T17:38:52;13.00;99.90
16974;DHT22;8603;46.944;7.412;2023-03-30T17:41:20;12.90;99.90
16974;DHT22;8603;46.944;7.412;2023-03-30T17:44:22;12.80;99.90
16974;DHT22;8603;46.944;7.412;2023-03-30T17:50:31;12.90;99.90
16974;DHT22;8603;46.944;7.412;2023-03-30T17:53:01;13.00;99.90
16974;DHT22;8603;46.944;7.412;2023-03-30T18:21:20;12.60;99.90
16974;DHT22;8603;46.944;7.412;2023-03-30T18:23:48;12.60;99.90
16974;DHT22;8603;46.944;7.412;2023-03-30T18:26:37;12.60;99.90
16974;DHT22;8603;46.944;7.412;2023-03-30T18:29:39;12.60;99.90
16974;DHT22;8603;46.944;7.412;2023-03-30T18:33:01;12.70;99.90
16974;DHT22;8603;46.944;7.412;2023-03-30T18:35:56;12.70;99.90
16974;DHT22;8603;46.944;7.412;2023-03-30T18:45:06;12.50;99.90
16974;DHT22;8603;46.944;7.412;2023-03-30T18:47:41;12.50;99.90
16974;DHT22;8603;46.944;7.412;2023-03-30T18:53:26;12.60;99.90
16974;DHT22;8603;46.944;7.412;2023-03-30T18:56:17;12.70;99.90
16974;DHT22;8603;46.944;7.412;2023-03-30T18:59:16;12.60;99.90
16974;DHT22;8603;46.944;7.412;2023-03-30T19:02:40;12.60;99.90
16974;DHT22;8603;46.944;7.412;2023-03-30T19:05:04;12.60;99.90
16974;DHT22;8603;46.944;7.412;2023-03-30T19:07:37;12.50;99.90
16974;DHT22;8603;46.944;7.412;2023-03-30T19:10:13;12.40;99.90
16974;DHT22;8603;46.944;7.412;2023-03-30T19:16:02;12.10;99.90
16974;DHT22;8603;46.944;7.412;2023-03-30T19:18:57;12.10;99.90
16974;DHT22;8603;46.944;7.412;2023-03-30T19:21:27;12.00;99.90
16974;DHT22;8603;46.944;7.412;2023-03-30T19:24:36;12.10;99.90
16974;DHT22;8603;46.944;7.412;2023-03-30T19:27:22;12.10;99.90
16974;DHT22;8603;46.944;7.412;2023-03-30T19:33:58;12.20;99.90
16974;DHT22;8603;46.944;7.412;2023-03-30T19:36:41;12.20;99.90
16974;DHT22;8603;46.944;7.412;2023-03-30T19:39:07;12.10;99.90
16974;DHT22;8603;46.944;7.412;2023-03-30T19:42:26;12.00;99.90
16974;DHT22;8603;46.944;7.412;2023-03-30T19:44:53;11.90;99.90
16974;DHT22;8603;46.944;7.412;2023-03-30T19:47:27;11.80;99.90
16974;DHT22;8603;46.944;7.412;2023-03-30T19:50:15;11.90;99.90
16974;DHT22;8603;46.944;7.412;2023-03-30T19:52:50;11.80;99.90
16974;DHT22;8603;46.944;7.412;2023-03-30T19:55:22;11.80;99.90
16974;DHT22;8603;46.944;7.412;2023-03-30T19:57:59;11.70;99.90
16974;DHT22;8603;46.944;7.412;2023-03-30T20:00:51;11.70;99.90
16974;DHT22;8603;46.944;7.412;2023-03-30T20:03:22;11.60;99.90
16974;DHT22;8603;46.944;7.412;2023-03-30T20:06:03;11.60;99.90
16974;DHT22;8603;46.944;7.412;2023-03-30T20:08:38;11.50;99.90
16974;DHT22;8603;46.944;7.412;2023-03-30T20:11:10;11.50;99.90
16974;DHT22;8603;46.944;7.412;2023-03-30T20:13:40;11.40;99.90
16974;DHT22;8603;46.944;7.412;2023-03-30T20:16:30;11.30;99.90
16974;DHT22;8603;46.944;7.412;2023-03-30T20:19:06;11.20;99.90
16974;DHT22;8603;46.944;7.412;2023-03-30T20:21:34;11.20;99.90
16974;DHT22;8603;46.944;7.412;2023-03-30T20:23:59;11.20;99.90
16974;DHT22;8603;46.944;7.412;2023-03-30T20:26:26;11.10;99.90
16974;DHT22;8603;46.944;7.412;2023-03-30T20:29:24;11.10;99.90
16974;DHT22;8603;46.944;7.412;2023-03-30T20:39:34;11.00;99.90
16974;DHT22;8603;46.944;7.412;2023-03-30T20:42:19;11.00;99.90
16974;DHT22;8603;46.944;7.412;2023-03-30T20:48:23;11.00;99.90
16974;DHT22;8603;46.944;7.412;2023-03-30T20:51:14;11.00;99.90
16974;DHT22;8603;46.944;7.412;2023-03-30T20:53:56;10.90;99.90
16974;DHT22;8603;46.944;7.412;2023-03-30T20:56:31;10.90;99.90